createdAt,value
2018-02-07T00:00:09.992Z,71.43
2018-02-07T00:02:38.315Z,81.97
2018-02-07T00:05:05.836Z,69.43
2018-02-07T00:07:33.384Z,71.20
2018-02-07T00:10:00.977Z,76.97
2018-02-07T00:12:28.476Z,72.50
2018-02-07T00:14:56.771Z,79.07
2018-02-07T00:17:25.111Z,69.50
2018-02-07T00:19:52.632Z,71.57
2018-02-07T00:22:20.947Z,69.53
2018-02-07T00:24:48.463Z,67.73
2018-02-07T00:27:16.017Z,74.60
2018-02-07T00:29:43.530Z,78.53
2018-02-07T00:32:11.075Z,75.90
2018-02-07T00:34:38.602Z,75.37
2018-02-07T00:37:06.166Z,66.70
2018-02-07T00:39:33.684Z,71.00
2018-02-07T00:42:01.247Z,72.33
2018-02-07T00:44:28.770Z,82.43
2018-02-07T00:46:56.319Z,77.47
2018-02-07T00:49:23.836Z,67.83
2018-02-07T00:51:51.392Z,70.07
2018-02-07T00:54:18.907Z,69.60
2018-02-07T00:56:46.468Z,76.87
2018-02-07T00:59:13.982Z,70.23
2018-02-07T01:01:41.532Z,71.13
2018-02-07T01:04:09.052Z,68.73
2018-02-07T01:06:36.603Z,74.43
2018-02-07T01:09:04.129Z,70.80
2018-02-07T01:11:31.667Z,83.10
2018-02-07T01:13:59.175Z,75.57
2018-02-07T01:16:26.744Z,73.90
2018-02-07T01:18:54.284Z,77.47
2018-02-07T01:21:21.831Z,78.17
2018-02-07T01:23:49.364Z,72.87
2018-02-07T01:26:16.908Z,75.80
2018-02-07T01:28:44.442Z,76.63
2018-02-07T01:31:12.000Z,77.67
2018-02-07T01:33:40.472Z,78.80
2018-02-07T01:36:08.008Z,76.67
2018-02-07T01:38:35.533Z,82.83
2018-02-07T01:41:03.080Z,84.03
2018-02-07T01:43:30.604Z,73.43
2018-02-07T01:45:58.917Z,93.03
2018-02-07T01:48:26.435Z,82.17
2018-02-07T01:50:54.010Z,72.60
2018-02-07T01:53:21.529Z,74.07
2018-02-07T01:55:49.823Z,71.10
2018-02-07T01:58:17.359Z,91.53
2018-02-07T02:00:44.868Z,75.53
2018-02-07T02:03:12.414Z,81.27
2018-02-07T02:05:40.717Z,75.83
2018-02-07T02:08:08.267Z,83.10
2018-02-07T02:10:35.772Z,83.43
2018-02-07T02:13:03.332Z,77.47
2018-02-07T02:15:31.611Z,84.60
2018-02-07T02:17:59.163Z,71.27
2018-02-07T02:20:26.688Z,88.03
2018-02-07T02:22:54.227Z,74.83
2018-02-07T02:25:21.746Z,92.57
2018-02-07T02:27:49.300Z,86.57
2018-02-07T02:30:16.903Z,84.70
2018-02-07T02:32:45.283Z,78.07
2018-02-07T02:35:12.806Z,83.17
2018-02-07T02:37:41.121Z,82.63
2018-02-07T02:40:08.643Z,80.70
2018-02-07T02:42:36.199Z,84.17
2018-02-07T02:45:03.755Z,73.03
2018-02-07T02:47:31.313Z,76.87
2018-02-07T02:49:58.840Z,77.03
2018-02-07T02:52:26.404Z,75.27
2018-02-07T02:54:53.939Z,77.03
2018-02-07T02:57:21.522Z,78.63
2018-02-07T02:59:49.074Z,78.03
2018-02-07T03:02:16.639Z,76.47
2018-02-07T03:04:44.179Z,85.27
2018-02-07T03:07:11.727Z,80.13
2018-02-07T03:09:39.270Z,78.87
2018-02-07T03:12:06.872Z,72.23
2018-02-07T03:14:34.390Z,67.50
2018-02-07T03:17:02.713Z,77.07
2018-02-07T03:19:30.231Z,78.93
2018-02-07T03:21:57.791Z,73.97
2018-02-07T03:24:25.309Z,70.00
2018-02-07T03:26:52.860Z,74.43
2018-02-07T03:29:21.159Z,78.03
2018-02-07T03:31:49.488Z,76.03
2018-02-07T03:34:17.024Z,69.50
2018-02-07T03:36:44.571Z,77.80
2018-02-07T03:39:12.131Z,73.80
2018-02-07T03:41:39.711Z,71.77
2018-02-07T03:44:07.240Z,78.47
2018-02-07T03:46:34.803Z,75.87
2018-02-07T03:49:02.337Z,69.00
2018-02-07T03:51:29.907Z,67.87
2018-02-07T03:53:57.423Z,64.50
2018-02-07T03:56:24.964Z,75.33
2018-02-07T03:58:52.520Z,71.67
2018-02-07T04:01:20.063Z,68.47
2018-02-07T04:03:47.618Z,69.50
2018-02-07T04:06:15.146Z,69.90
2018-02-07T04:08:42.716Z,65.77
2018-02-07T04:11:10.228Z,67.17
2018-02-07T04:13:37.775Z,64.87
2018-02-07T04:16:05.295Z,71.97
2018-02-07T04:18:32.849Z,72.03
2018-02-07T04:21:00.367Z,67.13
2018-02-07T04:23:27.924Z,75.23
2018-02-07T04:25:55.451Z,67.93
2018-02-07T04:28:23.003Z,75.37
2018-02-07T04:30:50.532Z,70.20
2018-02-07T04:33:18.097Z,68.43
2018-02-07T04:35:45.612Z,68.90
2018-02-07T04:38:13.940Z,74.43
2018-02-07T04:40:41.503Z,66.30
2018-02-07T04:43:09.071Z,63.83
2018-02-07T04:45:36.600Z,64.00
2018-02-07T04:48:04.151Z,74.77
2018-02-07T04:50:31.684Z,75.03
2018-02-07T04:52:59.256Z,91.07
2018-02-07T04:55:27.536Z,72.67
2018-02-07T04:57:55.850Z,74.17
2018-02-07T05:00:23.373Z,70.20
2018-02-07T05:02:50.928Z,67.53
2018-02-07T05:05:18.451Z,64.97
2018-02-07T05:07:46.768Z,67.63
2018-02-07T05:10:14.292Z,68.00
2018-02-07T05:12:42.618Z,67.07
2018-02-07T05:15:10.143Z,75.33
2018-02-07T05:17:37.688Z,71.10
2018-02-07T05:20:05.215Z,71.40
2018-02-07T05:22:33.528Z,74.13
2018-02-07T05:25:01.055Z,70.97
2018-02-07T05:27:28.614Z,77.33
2018-02-07T05:29:56.148Z,78.57
2018-02-07T05:32:23.703Z,74.20
2018-02-07T05:34:51.228Z,66.90
2018-02-07T05:37:18.810Z,72.97
2018-02-07T05:39:46.335Z,71.97
2018-02-07T05:42:13.896Z,68.23
2018-02-07T05:44:41.438Z,66.60
2018-02-07T05:47:08.995Z,70.40
2018-02-07T05:49:36.540Z,74.53
2018-02-07T05:52:04.095Z,72.70
2018-02-07T05:54:31.636Z,72.80
2018-02-07T05:56:59.972Z,67.27
2018-02-07T05:59:27.491Z,75.30
2018-02-07T06:01:55.813Z,66.73
2018-02-07T06:04:23.343Z,72.23
2018-02-07T06:06:50.936Z,70.83
2018-02-07T06:09:19.227Z,64.30
2018-02-07T06:11:47.543Z,67.13
2018-02-07T06:14:15.072Z,71.00
2018-02-07T06:16:42.627Z,70.23
2018-02-07T06:19:10.157Z,69.87
2018-02-07T06:21:37.719Z,70.97
2018-02-07T06:24:05.314Z,71.13
2018-02-07T06:26:32.872Z,68.30
2018-02-07T06:29:00.401Z,64.90
2018-02-07T06:31:27.953Z,61.30
2018-02-07T06:33:55.480Z,68.40
2018-02-07T06:36:23.027Z,67.20
2018-02-07T06:38:50.585Z,70.03
2018-02-07T06:41:18.135Z,66.27
2018-02-07T06:43:45.656Z,61.47
2018-02-07T06:46:13.996Z,61.33
2018-02-07T06:48:41.528Z,71.13
2018-02-07T06:51:09.087Z,60.70
2018-02-07T06:53:36.625Z,66.07
2018-02-07T06:56:04.175Z,65.93
2018-02-07T06:58:31.700Z,68.20
2018-02-07T07:01:00.117Z,66.10
2018-02-07T07:03:27.632Z,63.90
2018-02-07T07:05:55.191Z,66.77
2018-02-07T07:08:22.778Z,75.03
2018-02-07T07:10:50.315Z,71.07
2018-02-07T07:13:17.895Z,68.27
2018-02-07T07:15:46.297Z,64.83
2018-02-07T07:18:14.591Z,67.80
2018-02-07T07:20:42.148Z,60.60
2018-02-07T07:23:09.681Z,59.37
2018-02-07T07:25:38.016Z,60.47
2018-02-07T07:28:05.559Z,61.47
2018-02-07T07:30:33.125Z,62.67
2018-02-07T07:33:00.687Z,66.80
2018-02-07T07:35:29.004Z,63.77
2018-02-07T07:37:56.581Z,65.17
2018-02-07T07:40:24.156Z,62.93
2018-02-07T07:42:51.712Z,61.80
2018-02-07T07:45:19.243Z,55.60
2018-02-07T07:47:46.804Z,57.00
2018-02-07T07:50:14.317Z,58.17
2018-02-07T07:52:42.650Z,56.40
2018-02-07T07:55:10.190Z,53.83
2018-02-07T07:57:37.738Z,57.27
2018-02-07T08:00:05.256Z,59.13
2018-02-07T08:02:32.809Z,54.03
2018-02-07T08:05:00.336Z,54.43
2018-02-07T08:07:27.896Z,50.23
2018-02-07T08:09:55.433Z,63.43
2018-02-07T08:12:23.016Z,62.88
2018-02-07T08:14:50.540Z,63.37
2018-02-07T08:17:18.855Z,57.30
2018-02-07T08:19:47.169Z,61.23
2018-02-07T08:22:14.683Z,61.70
2018-02-07T08:24:42.242Z,56.73
2018-02-07T08:27:09.763Z,55.50
2018-02-07T08:29:37.324Z,54.67
2018-02-07T08:32:05.612Z,56.47
2018-02-07T08:34:33.935Z,55.60
2018-02-07T08:37:01.468Z,50.10
2018-02-07T08:39:29.782Z,56.33
2018-02-07T08:41:57.299Z,79.97
2018-02-07T08:44:24.856Z,60.67
2018-02-07T08:46:52.585Z,50.70
2018-02-07T08:49:20.151Z,53.53
2018-02-07T08:51:48.437Z,51.23
2018-02-07T08:54:15.989Z,47.33
2018-02-07T08:56:43.512Z,48.83
2018-02-07T08:59:11.062Z,51.63
2018-02-07T09:01:39.356Z,54.57
2018-02-07T09:04:07.737Z,45.10
2018-02-07T09:06:35.309Z,51.33
2018-02-07T09:09:03.669Z,50.97
2018-02-07T09:11:31.188Z,43.83
2018-02-07T09:13:59.516Z,54.67
2018-02-07T09:16:27.039Z,48.80
2018-02-07T09:18:55.404Z,53.80
2018-02-07T09:21:22.920Z,53.33
2018-02-07T09:23:50.481Z,48.17
2018-02-07T09:26:18.776Z,51.70
2018-02-07T09:28:46.324Z,53.90
2018-02-07T09:31:13.848Z,50.30
2018-02-07T09:33:41.416Z,56.13
2018-02-07T09:36:09.009Z,58.60
2018-02-07T09:38:36.576Z,53.63
2018-02-07T09:41:04.105Z,54.80
2018-02-07T09:43:32.424Z,51.53
2018-02-07T09:45:59.955Z,56.30
2018-02-07T09:48:28.284Z,46.70
2018-02-07T09:50:55.826Z,53.87
2018-02-07T09:53:24.157Z,57.80
2018-02-07T09:55:51.678Z,51.83
2018-02-07T09:58:19.240Z,53.40
2018-02-07T10:00:46.783Z,65.23
2018-02-07T10:03:14.342Z,49.37
2018-02-07T10:05:41.865Z,48.20
2018-02-07T10:08:09.424Z,55.37
2018-02-07T10:10:36.971Z,57.23
2018-02-07T10:13:04.650Z,52.40
2018-02-07T10:15:32.223Z,50.60
2018-02-07T10:17:59.751Z,56.47
2018-02-07T10:20:27.293Z,50.90
2018-02-07T10:22:54.853Z,52.57
2018-02-07T10:25:22.392Z,51.50
2018-02-07T10:27:49.951Z,50.50
2018-02-07T10:30:17.480Z,45.07
2018-02-07T10:32:45.036Z,48.73
2018-02-07T10:35:12.560Z,59.27
2018-02-07T10:37:40.148Z,48.43
2018-02-07T10:40:07.672Z,52.33
2018-02-07T10:42:35.181Z,48.40
2018-02-07T10:45:02.742Z,48.60
2018-02-07T10:47:30.275Z,52.07
2018-02-07T10:49:57.839Z,51.93
2018-02-07T10:52:26.165Z,47.60
2018-02-07T10:54:54.459Z,46.50
2018-02-07T10:57:22.782Z,55.67
2018-02-07T10:59:50.323Z,44.73
2018-02-07T11:02:18.635Z,49.87
2018-02-07T11:04:46.154Z,53.83
2018-02-07T11:07:13.711Z,48.37
2018-02-07T11:09:41.252Z,48.07
2018-02-07T11:12:08.834Z,52.13
2018-02-07T11:14:36.369Z,50.50
2018-02-07T11:17:03.896Z,50.77
2018-02-07T11:19:31.451Z,57.23
2018-02-07T11:21:59.001Z,54.10
2018-02-07T11:24:26.520Z,52.17
2018-02-07T11:26:54.068Z,56.20
2018-02-07T11:29:21.588Z,58.23
2018-02-07T11:31:49.138Z,53.97
2018-02-07T11:34:16.668Z,52.93
2018-02-07T11:36:44.225Z,51.60
2018-02-07T11:39:11.751Z,50.00
2018-02-07T11:41:39.320Z,56.87
2018-02-07T11:44:06.857Z,54.30
2018-02-07T11:46:34.429Z,57.90
2018-02-07T11:49:01.944Z,52.30
2018-02-07T11:51:29.492Z,52.50
2018-02-07T11:53:57.037Z,53.37
2018-02-07T11:56:24.591Z,51.67
2018-02-07T11:58:52.876Z,50.83
2018-02-07T12:01:21.219Z,55.13
2018-02-07T12:03:48.744Z,67.60
2018-02-07T12:06:17.051Z,52.33
2018-02-07T12:08:44.615Z,57.77
2018-02-07T12:11:12.936Z,52.73
2018-02-07T12:13:40.463Z,48.17
2018-02-07T12:16:08.019Z,53.77
2018-02-07T12:18:35.562Z,63.20
2018-02-07T12:21:03.129Z,57.30
2018-02-07T12:23:30.653Z,56.30
2018-02-07T12:25:58.988Z,55.53
2018-02-07T12:28:26.534Z,57.90
2018-02-07T12:30:54.058Z,63.83
2018-02-07T12:33:21.605Z,59.50
2018-02-07T12:35:49.125Z,70.13
2018-02-07T12:38:16.680Z,61.93
2018-02-07T12:40:44.257Z,60.17
2018-02-07T12:43:11.817Z,66.20
2018-02-07T12:45:39.342Z,63.30
2018-02-07T12:48:06.904Z,63.77
2018-02-07T12:50:34.425Z,64.43
2018-02-07T12:53:02.004Z,61.60
2018-02-07T12:55:29.557Z,71.33
2018-02-07T12:57:57.108Z,70.03
2018-02-07T13:00:24.644Z,66.17
2018-02-07T13:02:52.219Z,67.47
2018-02-07T13:05:19.740Z,67.30
2018-02-07T13:07:47.287Z,68.33
2018-02-07T13:10:15.611Z,64.67
2018-02-07T13:12:43.169Z,74.17
2018-02-07T13:15:10.687Z,71.80
2018-02-07T13:17:38.247Z,74.70
2018-02-07T13:20:05.776Z,76.37
2018-02-07T13:22:33.333Z,61.43
2018-02-07T13:25:01.620Z,68.83
2018-02-07T13:27:29.179Z,79.07
2018-02-07T13:29:56.705Z,74.30
2018-02-07T13:32:24.268Z,74.37
2018-02-07T13:34:51.792Z,71.13
2018-02-07T13:37:19.349Z,76.67
2018-02-07T13:39:46.886Z,79.00
2018-02-07T13:42:14.460Z,69.07
2018-02-07T13:44:41.984Z,75.53
2018-02-07T13:47:09.539Z,77.27
2018-02-07T13:49:37.080Z,83.57
2018-02-07T13:52:04.640Z,85.27
2018-02-07T13:54:32.159Z,74.90
2018-02-07T13:56:59.731Z,76.47
2018-02-07T13:59:27.303Z,88.63
2018-02-07T14:01:54.866Z,82.80
2018-02-07T14:04:22.381Z,86.47
2018-02-07T14:06:49.932Z,83.23
2018-02-07T14:09:17.517Z,81.77
2018-02-07T14:11:45.839Z,85.33
2018-02-07T14:14:13.360Z,87.43
2018-02-07T14:16:40.954Z,81.40
2018-02-07T14:19:09.250Z,88.83
2018-02-07T14:21:37.572Z,90.60
2018-02-07T14:24:05.104Z,90.40
2018-02-07T14:26:33.423Z,87.23
2018-02-07T14:29:00.940Z,96.00
2018-02-07T14:31:28.499Z,87.07
2018-02-07T14:33:56.035Z,84.20
2018-02-07T14:36:23.594Z,96.47
2018-02-07T14:38:51.728Z,97.60
2018-02-07T14:41:19.303Z,100.20
2018-02-07T14:43:46.838Z,96.43
2018-02-07T14:46:14.456Z,93.37
2018-02-07T14:48:41.973Z,82.23
2018-02-07T14:51:09.520Z,87.00
2018-02-07T14:53:37.040Z,85.47
2018-02-07T14:56:04.607Z,100.77
2018-02-07T14:58:32.136Z,109.77
2018-02-07T15:00:59.707Z,100.03
2018-02-07T15:03:27.246Z,97.63
2018-02-07T15:05:54.827Z,98.70
2018-02-07T15:08:22.346Z,96.67
2018-02-07T15:10:50.626Z,104.00
2018-02-07T15:13:18.177Z,103.40
2018-02-07T15:15:45.696Z,98.57
2018-02-07T15:18:13.247Z,107.67
2018-02-07T15:20:41.545Z,128.53
2018-02-07T15:23:09.121Z,110.70
2018-02-07T15:25:36.643Z,109.37
2018-02-07T15:28:04.197Z,162.17
2018-02-07T15:30:31.749Z,104.70
2018-02-07T15:32:59.322Z,123.70
2018-02-07T15:35:26.880Z,102.23
2018-02-07T15:37:54.411Z,114.53
2018-02-07T15:40:21.975Z,110.00
2018-02-07T15:42:49.499Z,133.27
2018-02-07T15:45:17.059Z,115.33
2018-02-07T15:47:45.353Z,104.97
2018-02-07T15:50:13.682Z,121.30
2018-02-07T15:52:41.212Z,108.77
2018-02-07T15:55:08.767Z,120.03
2018-02-07T15:57:36.292Z,115.10
2018-02-07T16:00:03.887Z,151.50
2018-02-07T16:02:31.423Z,172.60
2018-02-07T16:04:59.007Z,131.63
2018-02-07T16:07:26.528Z,126.63
2018-02-07T16:09:54.115Z,112.10
2018-02-07T16:12:21.647Z,125.10
2018-02-07T16:14:49.223Z,116.90
2018-02-07T16:17:16.796Z,127.60
2018-02-07T16:19:44.291Z,131.67
2018-02-07T16:22:11.862Z,132.17
2018-02-07T16:24:40.165Z,118.13
2018-02-07T16:27:08.484Z,131.47
2018-02-07T16:29:36.009Z,120.07
2018-02-07T16:32:03.572Z,134.80
2018-02-07T16:34:31.099Z,132.70
2018-02-07T16:36:58.630Z,116.87
2018-02-07T16:39:26.182Z,121.50
2018-02-07T16:41:53.748Z,129.90
2018-02-07T16:44:21.263Z,138.83
2018-02-07T16:46:49.552Z,127.03
2018-02-07T16:49:17.349Z,120.67
2018-02-07T16:51:44.881Z,129.20
2018-02-07T16:54:12.444Z,140.00
2018-02-07T16:56:39.985Z,139.97
2018-02-07T16:59:07.542Z,124.53
2018-02-07T17:01:35.072Z,135.67
2018-02-07T17:04:02.643Z,132.40
2018-02-07T17:06:30.179Z,137.03
2018-02-07T17:08:57.740Z,137.10
2018-02-07T17:11:25.270Z,136.30
2018-02-07T17:13:52.827Z,147.20
2018-02-07T17:16:21.145Z,150.70
2018-02-07T17:18:49.478Z,151.27
2018-02-07T17:21:17.007Z,153.97
2018-02-07T17:23:45.331Z,149.57
2018-02-07T17:26:12.851Z,156.70
2018-02-07T17:28:40.409Z,140.57
2018-02-07T17:31:07.944Z,127.97
2018-02-07T17:33:35.511Z,141.60
2018-02-07T17:36:03.031Z,145.23
2018-02-07T17:38:30.595Z,133.37
2018-02-07T17:40:58.122Z,158.47
2018-02-07T17:43:25.709Z,154.27
2018-02-07T17:45:53.428Z,138.53
2018-02-07T17:48:21.251Z,134.23
2018-02-07T17:50:48.779Z,142.70
2018-02-07T17:53:16.341Z,154.40
2018-02-07T17:55:43.863Z,155.63
2018-02-07T17:58:11.452Z,164.80
2018-02-07T18:00:38.972Z,154.93
2018-02-07T18:03:06.571Z,134.33
2018-02-07T18:05:34.101Z,185.07
2018-02-07T18:08:01.660Z,204.27
2018-02-07T18:10:29.892Z,171.10
2018-02-07T18:12:57.728Z,194.90
2018-02-07T18:15:25.711Z,215.23
2018-02-07T18:17:53.332Z,212.43
2018-02-07T18:20:21.069Z,258.33
2018-02-07T18:22:48.655Z,184.73
2018-02-07T18:25:16.192Z,190.63
2018-02-07T18:27:43.781Z,200.20
2018-02-07T18:30:12.081Z,162.47
2018-02-07T18:32:40.704Z,167.57
2018-02-07T18:35:09.031Z,142.77
2018-02-07T18:37:36.559Z,143.80
2018-02-07T18:40:04.730Z,143.60
2018-02-07T18:42:34.435Z,140.80
2018-02-07T18:45:02.261Z,138.53
2018-02-07T18:47:30.562Z,180.90
2018-02-07T18:49:58.115Z,185.33
2018-02-07T18:52:25.804Z,229.90
2018-02-07T18:54:54.130Z,226.57
2018-02-07T18:57:21.969Z,179.67
2018-02-07T18:59:49.657Z,226.87
2018-02-07T19:02:17.302Z,163.40
2018-02-07T19:04:44.969Z,140.97
2018-02-07T19:07:12.524Z,151.37
2018-02-07T19:09:40.207Z,163.53
2018-02-07T19:12:07.804Z,131.20
2018-02-07T19:14:36.123Z,116.73
2018-02-07T19:17:03.648Z,162.47
2018-02-07T19:19:31.239Z,159.00
2018-02-07T19:21:58.759Z,168.77
2018-02-07T19:24:26.323Z,169.20
2018-02-07T19:26:54.308Z,164.97
2018-02-07T19:29:21.890Z,148.73
2018-02-07T19:31:49.431Z,140.40
2018-02-07T19:34:17.754Z,142.93
2018-02-07T19:36:45.288Z,151.47
2018-02-07T19:39:12.850Z,134.37
2018-02-07T19:41:40.376Z,136.90
2018-02-07T19:44:07.948Z,115.47
2018-02-07T19:46:35.503Z,140.37
2018-02-07T19:49:03.072Z,146.23
2018-02-07T19:51:30.619Z,145.10
2018-02-07T19:53:59.014Z,128.27
2018-02-07T19:56:27.324Z,141.37
2018-02-07T19:58:54.915Z,152.17
2018-02-07T20:01:22.508Z,152.43
2018-02-07T20:03:50.110Z,162.23
2018-02-07T20:06:18.427Z,156.13
2018-02-07T20:08:46.013Z,161.67
2018-02-07T20:11:13.548Z,169.37
2018-02-07T20:13:41.902Z,191.70
2018-02-07T20:16:09.443Z,172.77
2018-02-07T20:18:37.605Z,152.53
2018-02-07T20:21:05.901Z,157.87
2018-02-07T20:23:33.463Z,171.33
2018-02-07T20:26:01.763Z,157.60
2018-02-07T20:28:29.318Z,137.77
2018-02-07T20:30:56.844Z,127.37
2018-02-07T20:33:24.416Z,137.87
2018-02-07T20:35:51.941Z,133.97
2018-02-07T20:38:19.500Z,116.27
2018-02-07T20:40:47.033Z,124.60
2018-02-07T20:43:14.595Z,120.20
2018-02-07T20:45:42.120Z,113.63
2018-02-07T20:48:09.706Z,150.27
2018-02-07T20:50:37.235Z,130.63
2018-02-07T20:53:04.807Z,123.53
2018-02-07T20:55:32.455Z,129.50
2018-02-07T20:58:00.038Z,127.10
2018-02-07T21:00:27.555Z,134.60
2018-02-07T21:02:55.152Z,133.70
2018-02-07T21:05:23.439Z,138.63
2018-02-07T21:07:50.964Z,117.67
2018-02-07T21:10:18.544Z,129.80
2018-02-07T21:12:46.076Z,116.20
2018-02-07T21:15:13.662Z,138.17
2018-02-07T21:17:41.192Z,117.33
2018-02-07T21:20:08.804Z,148.20
2018-02-07T21:22:36.321Z,196.17
2018-02-07T21:25:03.911Z,179.63
2018-02-07T21:27:31.436Z,165.63
2018-02-07T21:29:58.998Z,173.70
2018-02-07T21:32:26.556Z,146.97
2018-02-07T21:34:54.094Z,162.63
2018-02-07T21:37:21.663Z,139.90
2018-02-07T21:39:49.202Z,163.13
2018-02-07T21:42:16.783Z,145.60
2018-02-07T21:44:45.089Z,124.40
2018-02-07T21:47:12.720Z,109.67
2018-02-07T21:49:40.249Z,118.07
2018-02-07T21:52:07.788Z,112.77
2018-02-07T21:54:35.348Z,99.30
2018-02-07T21:57:02.877Z,102.57
2018-02-07T21:59:31.236Z,117.97
2018-02-07T22:01:58.777Z,114.93
2018-02-07T22:04:26.604Z,108.07
2018-02-07T22:06:55.232Z,100.40
2018-02-07T22:09:22.814Z,121.90
2018-02-07T22:11:50.403Z,114.43
2018-02-07T22:14:18.019Z,117.03
2018-02-07T22:16:45.541Z,134.33
2018-02-07T22:19:13.119Z,147.47
2018-02-07T22:21:40.677Z,145.63
2018-02-07T22:24:08.207Z,145.50
2018-02-07T22:26:35.767Z,150.47
2018-02-07T22:29:03.339Z,129.93
2018-02-07T22:31:30.899Z,135.10
2018-02-07T22:33:58.454Z,109.20
2018-02-07T22:36:25.977Z,134.73
2018-02-07T22:38:53.553Z,130.77
2018-02-07T22:41:21.073Z,131.00
2018-02-07T22:43:48.649Z,114.13
2018-02-07T22:46:16.195Z,123.77
2018-02-07T22:48:43.763Z,134.53
2018-02-07T22:51:11.317Z,141.53
2018-02-07T22:53:38.875Z,158.17
2018-02-07T22:56:06.405Z,149.77
2018-02-07T22:58:33.965Z,145.30
2018-02-07T23:01:01.486Z,128.27
2018-02-07T23:03:29.043Z,114.87
2018-02-07T23:05:56.588Z,133.23
2018-02-07T23:08:24.149Z,121.70
2018-02-07T23:10:51.681Z,137.43
2018-02-07T23:13:19.257Z,121.37
2018-02-07T23:15:46.783Z,132.60
2018-02-07T23:18:14.336Z,143.37
2018-02-07T23:20:41.888Z,150.00
2018-02-07T23:23:09.440Z,124.47
2018-02-07T23:25:36.963Z,106.70
2018-02-07T23:28:04.528Z,117.63
2018-02-07T23:30:32.056Z,113.00
2018-02-07T23:32:59.623Z,128.23
2018-02-07T23:35:27.148Z,117.50
2018-02-07T23:37:54.708Z,132.30
2018-02-07T23:40:22.232Z,125.23
2018-02-07T23:42:49.788Z,130.87
2018-02-07T23:45:17.307Z,121.97
2018-02-07T23:47:44.871Z,118.93
2018-02-07T23:50:12.400Z,121.47
2018-02-07T23:52:39.956Z,121.93
2018-02-07T23:55:07.484Z,115.60
2018-02-07T23:57:35.033Z,114.30
